Time;durP1;ratioP1;P1;durP2;ratioP2;P2;SDS_P1;SDS_P2;PMS_P1;PMS_P2;Temp;Humidity;BMP_temperature;BMP_pressure;BME280_temperature;BME280_humidity;BME280_pressure;Samples;Min_cycle;Max_cycle;Signal;HPM_P1;HPM_P2
2021/12/05 00:17:45;;;;;;;7.40;2.70;;;3.20;99.90;;;;;;5073969;28;20493;-73
2021/12/05 00:20:45;;;;;;;8.13;3.17;;;3.20;99.90;;;;;;5073685;28;20025;-72
2021/12/05 00:23:16;;;;;;;10.70;3.35;;;3.20;99.90;;;;;;5073153;28;20679;-73
2021/12/05 00:25:47;;;;;;;18.45;5.03;;;3.20;99.90;;;;;;5073875;28;20036;-72
2021/12/05 00:31:38;;;;;;;10.05;5.35;;;3.10;99.90;;;;;;5074162;28;20039;-73
2021/12/05 00:57:49;;;;;;;5.72;2.42;;;2.90;99.90;;;;;;5061932;28;20043;-73
2021/12/05 01:13:57;;;;;;;8.35;2.30;;;2.90;99.90;;;;;;5072482;28;20043;-72
2021/12/05 01:16:25;;;;;;;7.50;2.17;;;3.00;99.90;;;;;;5073899;28;20111;-71
2021/12/05 01:18:51;;;;;;;9.82;2.17;;;3.00;99.90;;;;;;5073930;28;20168;-74
2021/12/05 01:21:21;;;;;;;7.68;2.15;;;3.00;99.90;;;;;;5073036;28;20020;-72
2021/12/05 01:23:58;;;;;;;8.73;1.98;;;3.00;99.90;;;;;;5073783;28;20036;-72
2021/12/05 01:26:29;;;;;;;7.93;2.20;;;3.00;99.90;;;;;;5073635;28;20448;-72
2021/12/05 01:31:44;;;;;;;8.38;1.98;;;3.00;99.90;;;;;;5073619;28;20074;-72
2021/12/05 01:39:30;;;;;;;8.45;2.17;;;3.00;99.90;;;;;;5072628;28;20154;-72
2021/12/05 01:54:59;;;;;;;6.45;2.17;;;2.90;99.90;;;;;;5072993;28;20071;-72
2021/12/05 01:57:42;;;;;;;5.13;1.75;;;2.90;99.90;;;;;;5072886;28;20407;-72
2021/12/05 02:36:28;;;;;;;8.40;2.47;;;2.80;99.90;;;;;;5071757;28;20082;-72
2021/12/05 02:41:05;;;;;;;6.93;2.40;;;2.80;99.90;;;;;;5072365;28;20571;-72
2021/12/05 02:43:35;;;;;;;8.88;2.40;;;2.80;99.90;;;;;;5070960;28;20032;-72
2021/12/05 02:46:03;;;;;;;4.22;1.60;;;2.80;99.90;;;;;;5070286;28;20036;-75
2021/12/05 02:48:33;;;;;;;6.85;2.17;;;2.80;99.90;;;;;;5070961;28;20363;-72
2021/12/05 02:51:01;;;;;;;8.77;2.50;;;2.80;99.90;;;;;;5071716;28;20490;-75
2021/12/05 02:53:44;;;;;;;7.63;2.53;;;2.80;99.90;;;;;;5071959;28;20157;-73
2021/12/05 02:56:11;;;;;;;8.30;2.42;;;2.80;99.90;;;;;;5071438;28;20064;-73
2021/12/05 02:58:45;;;;;;;8.80;3.00;;;2.80;99.90;;;;;;5072108;28;20031;-72
2021/12/05 03:01:31;;;;;;;8.38;3.22;;;2.80;99.90;;;;;;5071276;28;20033;-72
2021/12/05 03:03:58;;;;;;;7.47;2.70;;;2.80;99.90;;;;;;5071765;28;20078;-72
2021/12/05 03:06:28;;;;;;;7.25;2.15;;;2.90;99.90;;;;;;5071339;28;20035;-72
2021/12/05 03:08:57;;;;;;;12.02;2.80;;;2.80;99.90;;;;;;5071892;28;20044;-73
2021/12/05 03:11:24;;;;;;;7.30;2.55;;;2.80;99.90;;;;;;5071079;28;20024;-72
2021/12/05 03:13:50;;;;;;;6.50;2.90;;;2.80;99.90;;;;;;5071712;28;20112;-72
2021/12/05 03:16:18;;;;;;;7.90;2.85;;;2.80;99.90;;;;;;5070919;28;20449;-72
2021/12/05 03:18:44;;;;;;;7.80;2.00;;;2.80;99.90;;;;;;5071676;28;20497;-72
2021/12/05 03:21:11;;;;;;;10.85;2.15;;;2.90;99.90;;;;;;5071114;28;20104;-72
2021/12/05 03:23:39;;;;;;;2.85;1.40;;;2.90;99.90;;;;;;5071935;28;20112;-72
2021/12/05 03:26:08;;;;;;;10.75;2.40;;;2.80;99.90;;;;;;5075008;28;20028;-73
2021/12/05 03:28:35;;;;;;;9.38;2.15;;;2.90;99.90;;;;;;5075837;28;20032;-72
2021/12/05 03:31:02;;;;;;;4.97;1.98;;;2.80;99.90;;;;;;5075519;28;20119;-75
2021/12/05 03:33:28;;;;;;;7.40;1.40;;;2.80;99.90;;;;;;5075759;28;20033;-72
2021/12/05 03:35:54;;;;;;;6.38;1.55;;;2.80;99.90;;;;;;5075648;28;20039;-72
2021/12/05 03:38:20;;;;;;;5.95;1.50;;;2.70;99.90;;;;;;5075041;28;20020;-72
2021/12/05 03:40:47;;;;;;;5.65;1.60;;;2.70;99.90;;;;;;5075592;28;20021;-72
2021/12/05 03:43:16;;;;;;;7.07;1.85;;;2.60;99.90;;;;;;5074929;28;20073;-73
2021/12/05 03:45:45;;;;;;;10.18;1.63;;;2.70;99.90;;;;;;5075561;28;20027;-72
2021/12/05 03:48:13;;;;;;;7.32;1.80;;;2.70;99.90;;;;;;5074896;28;20017;-73
2021/12/05 03:50:40;;;;;;;7.95;1.60;;;2.70;99.90;;;;;;5075647;28;20021;-72
2021/12/05 03:53:07;;;;;;;12.02;2.03;;;2.70;99.90;;;;;;5074692;28;20071;-75
2021/12/05 03:55:34;;;;;;;14.18;1.95;;;2.70;99.90;;;;;;5075574;28;20071;-72
2021/12/05 03:58:00;;;;;;;6.47;1.42;;;2.80;99.90;;;;;;5075467;28;20109;-72
2021/12/05 04:00:30;;;;;;;5.85;1.42;;;2.80;99.90;;;;;;5074829;28;20087;-72
2021/12/05 04:03:01;;;;;;;7.80;1.45;;;2.80;99.90;;;;;;5074491;28;20107;-72
2021/12/05 04:05:28;;;;;;;8.00;1.63;;;2.80;99.90;;;;;;5074851;28;20032;-72
2021/12/05 04:07:54;;;;;;;4.03;1.20;;;2.80;99.90;;;;;;5075264;28;20024;-73
2021/12/05 04:10:21;;;;;;;3.08;1.00;;;2.80;99.90;;;;;;5074452;28;20467;-73
2021/12/05 04:12:47;;;;;;;6.60;1.40;;;2.90;99.90;;;;;;5074749;28;20542;-72
2021/12/05 04:15:14;;;;;;;4.13;1.38;;;2.90;99.90;;;;;;5074280;28;20421;-72
2021/12/05 04:17:41;;;;;;;8.90;1.40;;;2.90;99.90;;;;;;5075038;28;20024;-72
2021/12/05 04:20:08;;;;;;;5.82;1.70;;;2.90;99.90;;;;;;5074309;28;20035;-75
2021/12/05 04:22:36;;;;;;;7.05;1.38;;;2.80;99.90;;;;;;5075133;28;20032;-72
2021/12/05 04:25:07;;;;;;;7.57;2.03;;;2.80;99.90;;;;;;5073526;28;20032;-72
2021/12/05 04:27:33;;;;;;;8.45;1.48;;;2.80;99.90;;;;;;5074437;28;20036;-72
2021/12/05 04:29:59;;;;;;;6.18;1.33;;;2.80;99.90;;;;;;5073536;28;20102;-72
2021/12/05 04:32:25;;;;;;;7.22;1.38;;;2.80;99.90;;;;;;5073777;28;20031;-72
2021/12/05 04:34:51;;;;;;;7.13;1.10;;;2.80;99.90;;;;;;5074765;28;20036;-72
2021/12/05 04:37:17;;;;;;;8.82;2.28;;;2.80;99.90;;;;;;5073480;28;20454;-73
2021/12/05 04:39:42;;;;;;;10.13;1.58;;;2.80;99.90;;;;;;5073506;28;20028;-72
2021/12/05 04:42:09;;;;;;;5.35;1.48;;;2.80;99.90;;;;;;5075033;28;20024;-75
2021/12/05 04:44:35;;;;;;;7.68;1.42;;;2.70;99.90;;;;;;5075007;28;20428;-73
2021/12/05 04:47:01;;;;;;;7.68;2.05;;;2.70;99.90;;;;;;5074928;28;20032;-72
2021/12/05 04:49:27;;;;;;;9.30;2.20;;;2.70;99.90;;;;;;5072354;28;20066;-73
2021/12/05 04:51:54;;;;;;;5.03;1.30;;;2.70;99.90;;;;;;5074474;28;20021;-72
2021/12/05 04:54:21;;;;;;;9.15;1.95;;;2.90;99.90;;;;;;5073420;28;20113;-73
2021/12/05 04:56:48;;;;;;;13.70;1.58;;;2.90;99.90;;;;;;5074433;28;20039;-72
2021/12/05 04:59:16;;;;;;;7.82;1.52;;;2.90;99.90;;;;;;5073397;28;20085;-73
2021/12/05 05:01:47;;;;;;;8.18;1.95;;;2.90;99.90;;;;;;5074156;28;20477;-73
2021/12/05 05:04:28;;;;;;;6.70;1.35;;;2.90;99.90;;;;;;5073493;28;20024;-73
2021/12/05 05:07:03;;;;;;;8.13;1.33;;;2.90;99.90;;;;;;5074228;28;20135;-73
2021/12/05 05:09:29;;;;;;;8.95;1.50;;;2.90;99.90;;;;;;5073282;28;20626;-72
2021/12/05 05:11:55;;;;;;;4.20;1.40;;;2.90;99.90;;;;;;5073998;28;20036;-72
2021/12/05 05:14:22;;;;;;;7.55;1.50;;;2.80;99.90;;;;;;5071953;28;20048;-72
2021/12/05 05:16:53;;;;;;;11.88;1.60;;;2.80;99.90;;;;;;5073852;28;20028;-73
2021/12/05 05:19:21;;;;;;;2.67;1.40;;;2.80;99.90;;;;;;5073199;28;20024;-73
2021/12/05 05:22:05;;;;;;;6.57;1.50;;;2.80;99.90;;;;;;5073885;28;20025;-72
2021/12/05 05:45:52;;;;;;;10.20;1.45;;;2.80;99.90;;;;;;5072586;28;20056;-72
2021/12/05 05:48:34;;;;;;;6.10;1.48;;;2.90;99.90;;;;;;5071815;28;20029;-73
2021/12/05 05:51:02;;;;;;;7.93;1.98;;;2.80;99.90;;;;;;5073390;28;20107;-72
2021/12/05 05:53:28;;;;;;;6.45;1.40;;;2.80;99.90;;;;;;5072434;28;20033;-72
2021/12/05 05:55:56;;;;;;;5.78;1.20;;;2.70;99.90;;;;;;5072672;28;20440;-72
2021/12/05 05:58:28;;;;;;;11.20;2.00;;;2.70;99.90;;;;;;5072304;28;20025;-73
2021/12/05 06:03:23;;;;;;;7.28;2.92;;;2.60;99.90;;;;;;5072102;28;20398;-74
2021/12/05 06:05:53;;;;;;;13.43;4.10;;;2.60;99.90;;;;;;5072813;28;20426;-74
2021/12/05 06:08:22;;;;;;;10.45;5.55;;;2.60;99.90;;;;;;5072117;28;20021;-72
2021/12/05 06:10:48;;;;;;;12.80;4.20;;;2.50;99.90;;;;;;5072887;28;20463;-71
2021/12/05 06:13:16;;;;;;;7.72;2.30;;;2.50;99.90;;;;;;5072368;28;20112;-77
2021/12/05 06:15:42;;;;;;;6.97;1.92;;;2.60;99.90;;;;;;5072543;28;20031;-74
2021/12/05 06:18:07;;;;;;;4.28;2.15;;;2.50;99.90;;;;;;5072705;28;20025;-75
2021/12/05 06:20:33;;;;;;;7.95;2.13;;;2.50;99.90;;;;;;5071960;28;20051;-74
2021/12/05 06:23:00;;;;;;;9.52;1.60;;;2.50;99.90;;;;;;5071506;28;20454;-73
2021/12/05 06:25:30;;;;;;;5.75;1.80;;;2.50;99.90;;;;;;5070664;28;20119;-74
2021/12/05 06:28:01;;;;;;;9.90;1.70;;;2.50;99.90;;;;;;5072835;28;20021;-74
2021/12/05 06:47:11;;;;;;;7.70;1.30;;;2.60;99.90;;;;;;5071948;28;20116;-72
2021/12/05 06:49:37;;;;;;;5.28;1.17;;;2.60;99.90;;;;;;5071483;28;20017;-72
2021/12/05 06:52:03;;;;;;;4.53;1.05;;;2.60;99.90;;;;;;5072202;28;20363;-72
2021/12/05 06:54:29;;;;;;;5.97;1.17;;;2.60;99.90;;;;;;5071196;28;20055;-72
2021/12/05 06:56:55;;;;;;;4.80;0.95;;;2.70;99.90;;;;;;5071160;28;20455;-72
2021/12/05 06:59:21;;;;;;;5.95;1.13;;;2.70;99.90;;;;;;5071331;28;20449;-72
2021/12/05 07:01:47;;;;;;;2.40;0.95;;;2.80;99.90;;;;;;5071972;28;20021;-72
2021/12/05 07:06:59;;;;;;;4.85;1.60;;;2.80;99.90;;;;;;5060399;28;20052;-72
2021/12/05 07:09:26;;;;;;;5.30;2.10;;;2.80;99.90;;;;;;5071038;28;20459;-72
2021/12/05 07:21:51;;;;;;;8.02;2.30;;;2.70;99.90;;;;;;5071159;28;20028;-72
2021/12/05 07:40:21;;;;;;;5.43;2.75;;;2.60;99.90;;;;;;5071680;28;20035;-72
2021/12/05 07:41:07;;;;;;;8.52;1.80;;;2.50;99.90;;;;;;5071542;28;20078;-72
2021/12/05 07:43:33;;;;;;;5.50;1.52;;;2.40;99.90;;;;;;5070989;28;20111;-72
2021/12/05 07:46:05;;;;;;;9.13;1.30;;;2.40;99.90;;;;;;5071431;28;20103;-72
2021/12/05 07:48:35;;;;;;;3.53;1.00;;;2.40;99.90;;;;;;5071485;28;20024;-73
2021/12/05 07:51:10;;;;;;;9.23;2.17;;;2.40;99.90;;;;;;5071597;28;20029;-72
2021/12/05 07:53:54;;;;;;;7.47;1.50;;;2.40;99.90;;;;;;5070853;28;20435;-72
2021/12/05 08:15:07;;;;;;;8.15;3.10;;;2.20;99.90;;;;;;5074823;28;20078;-73
2021/12/05 08:17:33;;;;;;;6.47;3.80;;;2.20;99.90;;;;;;5074156;28;20035;-73
2021/12/05 08:19:59;;;;;;;8.77;3.60;;;2.20;99.90;;;;;;5074873;28;20107;-72
2021/12/05 08:22:25;;;;;;;8.43;4.72;;;2.20;99.90;;;;;;5074115;28;20386;-74
2021/12/05 08:24:51;;;;;;;8.95;3.78;;;2.20;99.90;;;;;;5074613;28;20035;-72
2021/12/05 08:27:17;;;;;;;6.47;3.20;;;2.10;99.90;;;;;;5074787;28;20051;-72
2021/12/05 08:29:53;;;;;;;6.57;2.60;;;2.20;99.90;;;;;;5073977;28;20052;-72
2021/12/05 08:32:39;;;;;;;7.00;2.13;;;2.20;99.90;;;;;;5074855;28;20024;-72
2021/12/05 08:40:53;;;;;;;7.22;1.50;;;2.30;99.90;;;;;;5073918;28;20031;-75
2021/12/05 10:27:08;;;;;;;6.88;2.55;;;3.30;99.90;;;;;;5073504;28;20082;-75
2021/12/05 10:38:11;;;;;;;12.23;2.15;;;3.50;99.90;;;;;;5071764;28;20524;-73
2021/12/05 10:40:52;;;;;;;9.50;2.28;;;3.60;99.90;;;;;;5070827;28;20032;-72
2021/12/05 10:43:22;;;;;;;8.18;1.80;;;3.60;99.90;;;;;;5071442;28;20096;-74
2021/12/05 10:45:51;;;;;;;7.40;2.20;;;3.70;99.90;;;;;;5070983;28;20101;-74
2021/12/05 10:48:33;;;;;;;17.05;2.63;;;3.70;99.90;;;;;;5071262;28;20053;-74
2021/12/05 10:51:09;;;;;;;8.48;2.03;;;3.80;99.90;;;;;;5070637;28;20031;-74
2021/12/05 10:53:50;;;;;;;7.63;2.70;;;3.90;99.90;;;;;;5070606;28;20040;-74
2021/12/05 10:56:20;;;;;;;8.90;2.22;;;3.90;99.90;;;;;;5071595;28;20386;-73
2021/12/05 10:58:51;;;;;;;10.70;2.40;;;4.00;99.90;;;;;;5070563;28;20089;-73
2021/12/05 11:01:53;;;;;;;6.47;2.13;;;4.00;99.90;;;;;;5071395;28;20029;-73
2021/12/05 11:04:20;;;;;;;11.68;2.78;;;4.00;99.90;;;;;;5048933;28;20091;-73
2021/12/05 11:06:57;;;;;;;5.95;2.75;;;4.00;99.90;;;;;;5065564;28;20490;-73
2021/12/05 11:09:32;;;;;;;8.45;2.85;;;4.10;99.90;;;;;;5071281;28;20020;-72
2021/12/05 11:12:15;;;;;;;6.00;2.30;;;4.10;99.90;;;;;;5071259;28;20059;-72
2021/12/05 11:14:47;;;;;;;11.90;4.35;;;4.20;99.90;;;;;;5070319;28;20037;-72
2021/12/05 11:17:15;;;;;;;6.90;3.03;;;4.20;99.90;;;;;;5071271;28;20111;-73
2021/12/05 11:19:47;;;;;;;9.02;3.15;;;4.20;99.90;;;;;;5070330;28;20025;-74
2021/12/05 11:22:22;;;;;;;16.38;3.45;;;4.30;99.90;;;;;;5069834;28;20029;-74
2021/12/05 11:24:55;;;;;;;8.98;2.72;;;4.40;99.90;;;;;;5068884;28;20033;-73
2021/12/05 11:27:26;;;;;;;11.52;3.15;;;4.50;99.90;;;;;;5070843;28;20050;-74
2021/12/05 11:30:21;;;;;;;12.85;4.70;;;4.50;99.90;;;;;;5069051;28;20578;-75
2021/12/05 11:32:57;;;;;;;15.98;5.03;;;4.50;99.90;;;;;;5069929;28;20028;-74
2021/12/05 11:35:27;;;;;;;10.57;4.68;;;4.60;99.90;;;;;;5071264;28;20055;-73
2021/12/05 11:37:58;;;;;;;11.38;4.10;;;4.70;99.90;;;;;;5070298;28;20023;-74
2021/12/05 11:40:29;;;;;;;16.52;6.50;;;4.80;99.90;;;;;;5069890;28;20037;-74
2021/12/05 11:43:02;;;;;;;26.83;11.13;;;4.80;99.90;;;;;;5069997;28;20021;-74
2021/12/05 11:45:31;;;;;;;25.00;10.90;;;4.80;99.90;;;;;;5071540;28;20016;-73
2021/12/05 11:47:58;;;;;;;34.38;14.38;;;4.80;99.90;;;;;;5074322;28;20024;-73
2021/12/05 11:50:36;;;;;;;46.17;19.38;;;4.90;99.90;;;;;;5074870;28;20059;-74
2021/12/05 11:53:02;;;;;;;36.20;15.15;;;4.90;99.90;;;;;;5057651;28;20468;-74
2021/12/05 11:55:31;;;;;;;22.20;9.57;;;5.00;99.90;;;;;;5074133;28;20049;-75
2021/12/05 11:57:58;;;;;;;43.80;16.50;;;5.00;99.90;;;;;;5073919;28;20020;-75
2021/12/05 12:00:25;;;;;;;23.23;9.77;;;5.00;99.90;;;;;;5074827;28;20021;-75
2021/12/05 12:02:54;;;;;;;38.25;12.65;;;5.10;99.90;;;;;;5056125;28;20025;-74
2021/12/05 12:05:27;;;;;;;19.38;7.82;;;5.10;99.90;;;;;;5074581;28;20027;-75
2021/12/05 12:08:07;;;;;;;23.63;9.10;;;5.20;99.90;;;;;;5073660;28;20059;-75
2021/12/05 12:10:38;;;;;;;30.55;12.25;;;5.20;99.90;;;;;;5074135;28;20056;-77
2021/12/05 12:13:10;;;;;;;12.52;5.25;;;5.30;99.90;;;;;;5074022;28;20455;-74
2021/12/05 12:15:37;;;;;;;15.98;5.90;;;5.30;99.90;;;;;;5073717;28;20379;-74
2021/12/05 12:18:14;;;;;;;17.50;6.20;;;5.40;99.90;;;;;;5076622;28;20511;-74
2021/12/05 12:20:45;;;;;;;21.52;9.13;;;5.40;99.90;;;;;;5073579;28;20021;-75
2021/12/05 12:23:11;;;;;;;15.70;7.20;;;5.40;99.90;;;;;;5074335;28;20035;-75
2021/12/05 12:25:39;;;;;;;18.92;7.43;;;5.40;99.90;;;;;;5072366;28;20072;-74
2021/12/05 12:28:07;;;;;;;13.38;5.68;;;5.50;99.90;;;;;;5072614;28;20486;-73
2021/12/05 12:30:37;;;;;;;23.00;10.93;;;5.50;99.90;;;;;;5073659;28;20025;-76
2021/12/05 12:33:08;;;;;;;13.60;6.88;;;5.60;99.90;;;;;;5074395;28;20021;-74
2021/12/05 12:35:34;;;;;;;10.38;4.20;;;5.70;99.90;;;;;;5073555;28;20459;-77
2021/12/05 12:38:16;;;;;;;10.57;5.13;;;5.80;99.90;;;;;;5073994;28;20025;-74
2021/12/05 12:40:44;;;;;;;15.57;6.15;;;5.90;99.90;;;;;;5072946;28;20032;-74
2021/12/05 12:43:28;;;;;;;9.23;3.63;;;6.00;99.90;;;;;;5073984;28;20439;-74
2021/12/05 12:45:54;;;;;;;9.85;4.10;;;6.10;99.90;;;;;;5073071;28;20029;-74
2021/12/05 12:48:22;;;;;;;9.90;4.28;;;6.10;99.90;;;;;;5073546;28;20367;-74
2021/12/05 12:50:51;;;;;;;6.35;2.60;;;6.10;99.90;;;;;;5072766;28;20029;-73
2021/12/05 12:53:29;;;;;;;10.90;4.05;;;6.10;99.90;;;;;;5072056;28;20032;-74
2021/12/05 12:56:18;;;;;;;13.48;3.88;;;6.20;99.90;;;;;;5072279;28;20066;-74
2021/12/05 12:58:49;;;;;;;10.63;3.65;;;6.20;99.90;;;;;;5072668;28;20454;-74
2021/12/05 13:01:39;;;;;;;7.20;2.50;;;6.20;99.90;;;;;;5073291;28;20037;-74
2021/12/05 13:12:55;;;;;;;3.75;2.05;;;6.30;99.90;;;;;;5074009;28;20352;-73
2021/12/05 13:15:24;;;;;;;7.45;1.80;;;6.40;99.90;;;;;;5073272;28;20059;-74
2021/12/05 13:18:15;;;;;;;6.65;2.40;;;6.40;99.90;;;;;;5072610;28;20024;-74
2021/12/05 13:20:41;;;;;;;4.95;1.80;;;6.40;99.90;;;;;;5069947;28;20036;-74
2021/12/05 13:23:34;;;;;;;5.80;1.65;;;6.40;99.90;;;;;;5073796;28;20036;-73
2021/12/05 13:26:08;;;;;;;8.15;2.10;;;6.40;99.90;;;;;;5072086;28;20024;-74
2021/12/05 13:28:54;;;;;;;5.05;1.77;;;6.40;99.90;;;;;;5073048;28;20031;-77
2021/12/05 13:31:29;;;;;;;8.55;1.77;;;6.50;99.90;;;;;;5073550;28;20028;-74
2021/12/05 13:34:16;;;;;;;7.53;1.88;;;6.40;99.90;;;;;;5072430;28;20121;-74
2021/12/05 13:36:51;;;;;;;7.53;1.95;;;6.40;99.90;;;;;;5074299;28;20028;-74
2021/12/05 13:39:32;;;;;;;4.30;1.80;;;6.40;99.90;;;;;;5072932;28;20343;-74
2021/12/05 13:42:22;;;;;;;9.02;1.73;;;6.40;99.90;;;;;;5072426;28;20060;-74
2021/12/05 13:45:08;;;;;;;9.95;4.00;;;6.30;99.90;;;;;;5072317;28;20025;-74
2021/12/05 13:47:43;;;;;;;11.25;3.60;;;6.30;99.90;;;;;;5071501;28;20413;-76
2021/12/05 13:50:18;;;;;;;14.18;5.00;;;6.30;99.90;;;;;;5072851;28;20029;-74
2021/12/05 13:52:45;;;;;;;11.63;3.65;;;6.30;99.90;;;;;;5071872;28;20135;-73
2021/12/05 13:55:40;;;;;;;6.68;2.47;;;6.30;99.90;;;;;;5072658;28;20061;-75
2021/12/05 13:58:16;;;;;;;6.57;2.33;;;6.30;99.90;;;;;;5072774;28;20050;-74
2021/12/05 14:00:56;;;;;;;7.35;2.10;;;6.40;99.90;;;;;;5072049;28;20109;-74
2021/12/05 14:03:50;;;;;;;89.15;42.15;;;6.30;99.90;;;;;;5072571;28;20032;-74
2021/12/05 14:06:40;;;;;;;155.88;76.43;;;6.20;99.90;;;;;;5067549;28;20041;-74
2021/12/05 14:09:26;;;;;;;54.60;28.08;;;6.20;99.90;;;;;;5072192;28;20025;-73
2021/12/05 14:11:59;;;;;;;43.08;22.95;;;6.10;99.90;;;;;;5070426;28;20032;-74
2021/12/05 14:14:38;;;;;;;15.32;7.20;;;6.00;99.90;;;;;;5072390;28;20501;-73
2021/12/05 14:17:26;;;;;;;9.35;5.20;;;5.90;99.90;;;;;;5072443;28;20032;-74
2021/12/05 14:20:17;;;;;;;4.43;2.35;;;5.90;99.90;;;;;;5071265;28;20446;-74
2021/12/05 14:22:47;;;;;;;7.47;2.55;;;5.90;99.90;;;;;;5071811;28;20028;-74
2021/12/05 14:25:17;;;;;;;10.00;2.50;;;5.90;99.90;;;;;;5071703;28;20099;-76
2021/12/05 14:27:46;;;;;;;9.18;2.80;;;5.90;99.90;;;;;;5069810;28;20402;-73
2021/12/05 14:30:16;;;;;;;7.45;2.40;;;5.90;99.90;;;;;;5070293;28;20406;-73
2021/12/05 14:32:44;;;;;;;10.27;2.42;;;5.90;99.90;;;;;;5071014;28;20048;-76
2021/12/05 14:35:18;;;;;;;8.52;2.45;;;5.90;99.90;;;;;;5071621;28;20036;-73
2021/12/05 14:37:46;;;;;;;13.13;2.60;;;6.00;99.90;;;;;;5069855;28;20082;-74
2021/12/05 14:40:19;;;;;;;8.80;2.40;;;6.00;99.90;;;;;;5071755;28;20054;-73
2021/12/05 14:42:51;;;;;;;6.60;2.05;;;6.00;99.90;;;;;;5070780;28;20378;-73
2021/12/05 14:45:22;;;;;;;9.43;3.28;;;6.10;99.90;;;;;;5071798;28;20027;-73
2021/12/05 14:47:51;;;;;;;5.78;2.42;;;6.10;99.90;;;;;;5071182;28;20463;-73
2021/12/05 14:50:27;;;;;;;17.38;3.78;;;6.10;99.90;;;;;;5071583;28;20061;-73
2021/12/05 14:52:55;;;;;;;11.60;3.15;;;6.10;99.90;;;;;;5070220;28;20032;-74
2021/12/05 14:55:24;;;;;;;8.00;3.10;;;6.20;99.90;;;;;;5072663;28;20126;-73
2021/12/05 14:58:10;;;;;;;7.03;2.30;;;6.10;99.90;;;;;;5070570;28;20056;-73
2021/12/05 15:00:58;;;;;;;7.63;2.30;;;6.10;99.90;;;;;;5071595;28;20112;-73
2021/12/05 15:03:27;;;;;;;5.30;1.67;;;6.10;99.90;;;;;;5071298;28;20021;-73
2021/12/05 15:05:58;;;;;;;6.00;2.08;;;6.00;99.90;;;;;;5070632;28;20016;-73
2021/12/05 15:08:28;;;;;;;9.35;2.70;;;6.00;99.90;;;;;;5070290;28;20119;-73
2021/12/05 15:11:07;;;;;;;4.80;2.28;;;6.00;99.90;;;;;;5069564;28;20029;-73
2021/12/05 15:13:34;;;;;;;8.27;2.10;;;5.90;99.90;;;;;;5071203;28;20067;-73
2021/12/05 15:16:00;;;;;;;8.77;2.03;;;5.80;99.90;;;;;;5070140;28;20025;-72
2021/12/05 15:18:32;;;;;;;6.53;2.47;;;5.70;99.90;;;;;;5071222;28;20028;-72
2021/12/05 15:20:59;;;;;;;10.07;2.80;;;5.70;99.90;;;;;;5068337;28;20402;-72
2021/12/05 15:23:35;;;;;;;13.40;3.15;;;5.60;99.90;;;;;;5071102;28;20029;-72
2021/12/05 15:26:04;;;;;;;14.55;3.35;;;5.60;99.90;;;;;;5070188;28;20028;-72
2021/12/05 15:28:30;;;;;;;9.30;3.88;;;5.50;99.90;;;;;;5070879;28;20459;-72
2021/12/05 15:30:56;;;;;;;7.50;3.95;;;5.50;99.90;;;;;;5070097;28;20386;-72
2021/12/05 15:33:25;;;;;;;12.02;4.10;;;5.50;99.90;;;;;;5070729;28;20112;-72
2021/12/05 15:35:52;;;;;;;10.60;3.53;;;5.50;99.90;;;;;;5070172;28;20143;-72
2021/12/05 15:38:23;;;;;;;9.38;3.35;;;5.40;99.90;;;;;;5071042;28;20025;-73
2021/12/05 15:40:55;;;;;;;9.55;3.00;;;5.40;99.90;;;;;;5069834;28;20364;-73
2021/12/05 15:43:22;;;;;;;11.27;3.30;;;5.30;99.90;;;;;;5071126;28;20107;-74
2021/12/05 15:45:51;;;;;;;6.53;2.75;;;5.20;99.90;;;;;;5069920;28;20253;-73
2021/12/05 15:48:33;;;;;;;9.07;2.80;;;5.10;99.90;;;;;;5070797;28;20025;-72
2021/12/05 15:51:03;;;;;;;8.43;3.15;;;5.00;99.90;;;;;;5070192;28;20072;-72
2021/12/05 15:53:32;;;;;;;12.02;3.55;;;4.90;99.90;;;;;;5070726;28;20044;-72
2021/12/05 15:56:01;;;;;;;8.65;3.70;;;4.80;99.90;;;;;;5069500;28;20114;-72
2021/12/05 15:58:39;;;;;;;10.77;4.45;;;4.70;99.90;;;;;;5070482;28;20617;-72
2021/12/05 16:01:13;;;;;;;18.15;5.85;;;4.70;99.90;;;;;;5070226;28;20036;-72
2021/12/05 16:03:39;;;;;;;16.40;5.68;;;4.60;99.90;;;;;;5069249;28;20099;-74
2021/12/05 16:06:05;;;;;;;14.30;5.90;;;4.50;99.90;;;;;;5068521;28;20144;-74
2021/12/05 16:08:32;;;;;;;13.00;6.03;;;4.50;99.90;;;;;;5070291;28;20024;-72
2021/12/05 16:10:59;;;;;;;18.23;6.95;;;4.30;99.90;;;;;;5073040;28;20092;-73
2021/12/05 16:13:34;;;;;;;26.52;10.95;;;4.30;99.90;;;;;;5070598;28;20038;-72
2021/12/05 16:16:09;;;;;;;20.50;10.35;;;4.30;99.90;;;;;;5069871;28;20029;-73
2021/12/05 16:18:36;;;;;;;20.33;12.02;;;4.30;99.90;;;;;;5069857;28;20154;-73
2021/12/05 16:21:13;;;;;;;14.50;9.25;;;4.20;99.90;;;;;;5065992;28;20012;-73
2021/12/05 16:23:38;;;;;;;32.42;12.57;;;4.20;99.90;;;;;;5068643;28;20033;-74
2021/12/05 16:26:24;;;;;;;20.50;9.02;;;4.20;99.90;;;;;;5069463;28;20032;-73
2021/12/05 16:28:56;;;;;;;17.42;9.60;;;4.20;99.90;;;;;;5069376;28;20033;-72
2021/12/05 16:31:27;;;;;;;17.20;9.18;;;4.10;99.90;;;;;;5070379;28;20472;-73
2021/12/05 16:33:54;;;;;;;20.95;11.95;;;4.00;99.90;;;;;;5072682;28;20136;-73
2021/12/05 16:36:21;;;;;;;20.42;11.32;;;4.00;99.90;;;;;;5073761;28;20039;-73
2021/12/05 16:38:50;;;;;;;22.73;12.15;;;3.90;99.90;;;;;;5073190;28;20455;-73
2021/12/05 16:41:24;;;;;;;19.63;12.38;;;3.80;99.90;;;;;;5073257;28;20032;-73
2021/12/05 16:43:50;;;;;;;25.90;14.00;;;3.80;99.90;;;;;;5071562;28;20032;-73
2021/12/05 16:46:26;;;;;;;26.30;14.63;;;3.80;99.90;;;;;;5073118;28;20029;-72
2021/12/05 16:48:53;;;;;;;31.65;19.50;;;3.70;99.90;;;;;;5072596;28;20091;-73
2021/12/05 16:51:29;;;;;;;31.80;19.33;;;3.70;99.90;;;;;;5073527;28;20024;-73
2021/12/05 16:54:02;;;;;;;31.52;16.45;;;3.60;99.90;;;;;;5072850;28;20059;-73
2021/12/05 16:57:10;;;;;;;29.38;17.25;;;3.60;99.90;;;;;;5073788;28;20106;-72
2021/12/05 16:59:49;;;;;;;29.17;15.32;;;3.60;99.90;;;;;;5068171;28;20032;-73
2021/12/05 17:02:27;;;;;;;39.70;26.85;;;3.50;99.90;;;;;;5072992;28;20383;-73
2021/12/05 17:05:00;;;;;;;37.70;25.27;;;3.40;99.90;;;;;;5072260;28;20489;-73
2021/12/05 17:07:37;;;;;;;;;;;3.30;99.90;;;;;;5073799;28;20021;-73
2021/12/05 17:10:27;;;;;;;62.20;36.33;;;3.30;99.90;;;;;;5072303;28;20104;-73
2021/12/05 17:13:05;;;;;;;61.45;36.50;;;3.30;99.90;;;;;;5071684;28;20036;-74
2021/12/05 17:15:32;;;;;;;52.63;33.53;;;3.20;99.90;;;;;;5072742;28;20051;-74
2021/12/05 17:18:02;;;;;;;48.67;30.42;;;3.20;99.90;;;;;;5070830;28;20455;-74
2021/12/05 17:20:42;;;;;;;53.03;30.80;;;3.20;99.90;;;;;;5071819;28;20099;-74
2021/12/05 17:23:11;;;;;;;48.05;29.33;;;3.20;99.90;;;;;;5073144;28;20103;-73
2021/12/05 17:25:40;;;;;;;45.38;27.55;;;3.10;99.90;;;;;;5075358;28;20039;-73
2021/12/05 17:28:11;;;;;;;43.00;24.83;;;3.10;99.90;;;;;;5071784;28;20139;-73
2021/12/05 17:30:48;;;;;;;41.85;25.38;;;3.00;99.90;;;;;;5071524;28;20113;-74
2021/12/05 17:33:29;;;;;;;44.72;26.23;;;3.00;99.90;;;;;;5072725;28;20025;-75
2021/12/05 17:35:56;;;;;;;75.53;44.10;;;3.00;99.90;;;;;;5070684;28;20033;-75
2021/12/05 17:38:34;;;;;;;63.85;39.25;;;3.00;99.90;;;;;;5072919;28;20028;-74
2021/12/05 17:41:00;;;;;;;62.95;39.55;;;3.00;99.90;;;;;;5071742;28;20100;-73
2021/12/05 17:43:26;;;;;;;72.93;41.35;;;2.90;99.90;;;;;;5070592;28;20526;-73
2021/12/05 17:45:52;;;;;;;73.57;43.45;;;2.80;99.90;;;;;;5072020;28;20029;-73
2021/12/05 17:48:18;;;;;;;73.57;43.58;;;2.80;99.90;;;;;;5072681;28;20402;-72
2021/12/05 17:50:44;;;;;;;68.50;42.60;;;2.80;99.90;;;;;;5072356;28;20494;-74
2021/12/05 17:53:10;;;;;;;74.40;46.30;;;2.70;99.90;;;;;;5072198;28;20032;-72
2021/12/05 17:55:43;;;;;;;70.32;43.67;;;2.70;99.90;;;;;;5072475;28;20048;-73
2021/12/05 17:58:22;;;;;;;;;;;2.70;99.90;;;;;;5071703;28;20033;-73
2021/12/05 18:02:36;;;;;;;67.35;42.75;;;2.70;99.90;;;;;;5071465;28;20016;-74
2021/12/05 18:03:43;;;;;;;69.10;42.08;;;2.60;99.90;;;;;;5072444;28;20493;-72
2021/12/05 18:06:09;;;;;;;75.85;44.60;;;2.60;99.90;;;;;;5071597;28;20066;-72
2021/12/05 18:08:35;;;;;;;71.05;42.75;;;2.60;99.90;;;;;;5072412;28;20107;-72
2021/12/05 18:11:07;;;;;;;73.57;44.28;;;2.50;99.90;;;;;;5070037;28;20029;-73
2021/12/05 18:13:36;;;;;;;76.32;47.17;;;2.50;99.90;;;;;;5072073;28;20485;-73
2021/12/05 18:16:12;;;;;;;71.72;42.65;;;2.40;99.90;;;;;;5071163;28;20028;-74
2021/12/05 18:18:39;;;;;;;94.57;57.53;;;2.50;99.90;;;;;;5071978;28;20059;-73
2021/12/05 18:21:07;;;;;;;72.05;45.55;;;2.50;99.90;;;;;;5070061;28;20111;-73
2021/12/05 18:23:34;;;;;;;70.20;43.35;;;2.50;99.90;;;;;;5070729;28;20116;-73
2021/12/05 18:26:00;;;;;;;87.20;47.53;;;2.50;99.90;;;;;;5071113;28;20017;-75
2021/12/05 18:28:26;;;;;;;63.65;36.83;;;2.50;99.90;;;;;;5071820;28;20430;-73
2021/12/05 18:30:52;;;;;;;62.17;35.80;;;2.40;99.90;;;;;;5070722;28;20071;-74
2021/12/05 18:33:20;;;;;;;58.28;35.55;;;2.40;99.90;;;;;;5071242;28;20631;-74
2021/12/05 18:35:47;;;;;;;60.85;37.63;;;2.30;99.90;;;;;;5070153;28;20402;-76
2021/12/05 18:38:15;;;;;;;62.35;38.35;;;2.30;99.90;;;;;;5072951;28;20020;-73
2021/12/05 18:40:45;;;;;;;63.85;40.38;;;2.20;99.90;;;;;;5070909;28;20512;-73
2021/12/05 18:43:11;;;;;;;77.70;44.47;;;2.20;99.90;;;;;;5071038;28;20028;-73